createdAt,value
2022-12-02T00:00:15.459Z,8.25
2022-12-02T00:02:41.895Z,8.85
2022-12-02T00:05:11.266Z,9.09
2022-12-02T00:07:37.870Z,7.94
2022-12-02T00:10:25.369Z,8.58
2022-12-02T00:12:52.118Z,8.65
2022-12-02T00:15:42.346Z,9.01
2022-12-02T00:18:13.674Z,8.54
2022-12-02T00:20:40.689Z,8.52
2022-12-02T00:23:07.618Z,8.67
2022-12-02T00:25:34.717Z,8.97
2022-12-02T00:28:01.547Z,8.84
2022-12-02T00:30:28.234Z,8.86
2022-12-02T00:32:55.027Z,8.66
2022-12-02T00:35:24.386Z,8.75
2022-12-02T00:37:51.918Z,8.36
2022-12-02T00:40:18.471Z,8.45
2022-12-02T00:42:44.843Z,8.60
2022-12-02T00:45:30.832Z,8.28
2022-12-02T00:47:57.730Z,8.52
2022-12-02T00:50:24.297Z,8.56
2022-12-02T00:52:51.158Z,8.71
2022-12-02T00:55:17.889Z,8.52
2022-12-02T00:57:44.498Z,8.72
2022-12-02T01:00:12.208Z,8.57
2022-12-02T01:02:38.902Z,8.63
2022-12-02T01:05:05.949Z,8.29
2022-12-02T01:07:32.416Z,8.54
2022-12-02T01:09:58.829Z,8.46
2022-12-02T01:12:25.169Z,8.85
2022-12-02T01:14:51.809Z,8.82
2022-12-02T01:17:18.379Z,8.55
2022-12-02T01:19:44.753Z,8.40
2022-12-02T01:22:11.087Z,8.37
2022-12-02T01:24:37.649Z,8.36
2022-12-02T01:27:04.046Z,8.59
2022-12-02T01:29:30.385Z,8.70
2022-12-02T01:31:56.781Z,8.69
2022-12-02T01:34:23.214Z,8.74
2022-12-02T01:36:49.545Z,8.79
2022-12-02T01:39:15.863Z,8.73
2022-12-02T01:45:23.272Z,8.45
2022-12-02T01:47:49.900Z,8.36
2022-12-02T01:50:17.840Z,8.25
2022-12-02T01:52:44.996Z,8.21
2022-12-02T01:55:20.284Z,8.25
2022-12-02T01:57:47.014Z,8.44
2022-12-02T02:00:14.455Z,8.41
2022-12-02T02:02:41.068Z,7.87
2022-12-02T02:05:12.169Z,8.25
2022-12-02T02:07:40.363Z,7.97
2022-12-02T02:10:07.844Z,8.00
2022-12-02T02:12:35.100Z,8.24
2022-12-02T02:15:07.641Z,8.45
2022-12-02T02:17:34.350Z,8.41
2022-12-02T02:20:02.699Z,8.74
2022-12-02T02:22:45.878Z,8.75
2022-12-02T02:25:20.588Z,8.65
2022-12-02T02:27:53.964Z,8.59
2022-12-02T02:30:20.885Z,8.65
2022-12-02T02:32:48.247Z,8.78
2022-12-02T02:35:15.645Z,8.34
2022-12-02T02:37:42.408Z,8.65
2022-12-02T02:40:10.146Z,8.53
2022-12-02T02:42:36.980Z,8.42
2022-12-02T02:45:04.304Z,8.75
2022-12-02T02:47:30.739Z,8.57
2022-12-02T02:49:57.506Z,8.18
2022-12-02T02:52:23.996Z,8.39
2022-12-02T02:54:50.496Z,7.94
2022-12-02T02:57:17.157Z,8.20
2022-12-02T02:59:45.114Z,8.38
2022-12-02T03:02:13.174Z,8.27
2022-12-02T03:04:41.990Z,8.06
2022-12-02T03:07:08.813Z,8.10
2022-12-02T03:09:35.723Z,8.19
2022-12-02T03:12:02.413Z,8.29
2022-12-02T03:14:29.953Z,7.96
2022-12-02T03:16:59.379Z,7.89
2022-12-02T03:19:25.894Z,7.39
2022-12-02T03:21:52.672Z,7.44
2022-12-02T03:24:19.601Z,8.02
2022-12-02T03:26:46.562Z,7.78
2022-12-02T03:29:14.297Z,8.47
2022-12-02T03:31:41.547Z,8.56
2022-12-02T03:34:09.070Z,8.23
2022-12-02T03:36:35.429Z,8.04
2022-12-02T03:39:02.346Z,8.30
2022-12-02T03:41:28.994Z,7.88
2022-12-02T03:43:58.999Z,8.30
2022-12-02T03:46:26.752Z,8.46
2022-12-02T03:48:55.034Z,7.96
2022-12-02T03:51:21.438Z,7.90
2022-12-02T03:53:48.543Z,8.66
2022-12-02T03:56:15.039Z,8.51
2022-12-02T03:58:50.833Z,8.32
2022-12-02T04:01:18.803Z,8.57
2022-12-02T04:03:45.473Z,8.31
2022-12-02T04:06:12.409Z,7.54
2022-12-02T04:08:39.058Z,7.71
2022-12-02T04:11:05.584Z,7.66
2022-12-02T04:13:32.008Z,7.90
2022-12-02T04:15:58.477Z,7.24
2022-12-02T04:18:24.911Z,7.88
2022-12-02T04:20:51.289Z,7.53
2022-12-02T04:23:17.679Z,7.51
2022-12-02T04:25:44.019Z,7.91
2022-12-02T04:28:10.381Z,7.91
2022-12-02T04:30:36.751Z,7.36
2022-12-02T04:33:03.350Z,6.93
2022-12-02T04:35:29.770Z,8.11
2022-12-02T04:37:56.262Z,8.01
2022-12-02T04:40:23.101Z,8.19
2022-12-02T04:42:49.472Z,7.99
2022-12-02T04:45:16.074Z,7.51
2022-12-02T04:47:42.364Z,7.83
2022-12-02T04:50:09.278Z,7.69
2022-12-02T04:52:35.720Z,7.73
2022-12-02T04:55:02.088Z,7.48
2022-12-02T04:57:31.688Z,7.77
2022-12-02T04:59:58.725Z,7.40
2022-12-02T05:02:25.239Z,7.62
2022-12-02T05:04:51.692Z,7.41
2022-12-02T05:07:18.056Z,7.43
2022-12-02T05:09:44.453Z,7.30
2022-12-02T05:12:10.818Z,7.58
2022-12-02T05:14:37.304Z,7.70
2022-12-02T05:17:03.672Z,7.47
2022-12-02T05:19:30.065Z,7.48
2022-12-02T05:21:56.457Z,7.61
2022-12-02T05:24:22.850Z,7.70
2022-12-02T05:26:49.254Z,7.64
2022-12-02T05:29:15.609Z,7.53
2022-12-02T05:31:42.206Z,7.43
2022-12-02T05:34:08.575Z,7.48
2022-12-02T05:36:34.895Z,7.72
2022-12-02T05:39:01.228Z,7.77
2022-12-02T05:41:27.586Z,7.92
2022-12-02T05:43:54.406Z,7.08
2022-12-02T05:46:21.751Z,7.70
2022-12-02T05:48:49.946Z,7.69
2022-12-02T05:51:19.660Z,7.81
2022-12-02T05:53:48.567Z,7.84
2022-12-02T05:56:25.681Z,7.91
2022-12-02T05:58:52.610Z,7.69
2022-12-02T06:01:27.850Z,7.69
2022-12-02T06:03:54.198Z,7.65
2022-12-02T06:06:27.885Z,7.71
2022-12-02T06:08:56.044Z,7.47
2022-12-02T06:11:26.239Z,7.45
2022-12-02T06:13:52.825Z,7.43
2022-12-02T06:16:24.756Z,7.81
2022-12-02T06:18:51.535Z,7.76
2022-12-02T06:21:20.537Z,7.53
2022-12-02T06:23:50.578Z,7.70
2022-12-02T06:26:19.719Z,7.48
2022-12-02T06:28:49.180Z,7.54
2022-12-02T06:31:21.155Z,7.74
2022-12-02T06:33:49.666Z,7.68
2022-12-02T06:36:25.113Z,7.77
2022-12-02T06:39:02.708Z,7.78
2022-12-02T06:41:31.744Z,7.65
2022-12-02T06:44:27.679Z,7.44
2022-12-02T06:46:54.270Z,7.80
2022-12-02T06:49:22.673Z,7.89
2022-12-02T06:51:55.568Z,7.76
2022-12-02T06:54:26.144Z,7.50
2022-12-02T06:56:52.560Z,7.89
2022-12-02T06:59:21.996Z,7.90
2022-12-02T07:01:49.358Z,7.67
2022-12-02T07:04:28.741Z,7.88
2022-12-02T07:06:59.966Z,7.45
2022-12-02T07:09:36.664Z,7.82
2022-12-02T07:12:03.673Z,7.75
2022-12-02T07:14:44.276Z,7.63
2022-12-02T07:17:21.225Z,7.81
2022-12-02T07:20:12.237Z,7.74
2022-12-02T07:22:50.694Z,6.90
2022-12-02T07:25:18.797Z,7.72
2022-12-02T07:27:48.658Z,7.39
2022-12-02T07:30:25.552Z,7.66
2022-12-02T07:32:52.508Z,7.69
2022-12-02T07:35:19.357Z,7.76
2022-12-02T07:37:46.213Z,7.54
2022-12-02T07:40:13.822Z,7.72
2022-12-02T07:42:40.246Z,7.70
2022-12-02T07:45:07.085Z,7.59
2022-12-02T07:47:34.342Z,7.59
2022-12-02T07:50:01.038Z,7.31
2022-12-02T07:52:27.747Z,7.65
2022-12-02T07:54:55.431Z,7.59
2022-12-02T07:57:23.073Z,7.69
2022-12-02T07:59:49.393Z,7.48
2022-12-02T08:02:15.971Z,7.51
2022-12-02T08:04:42.484Z,7.66
2022-12-02T08:07:08.933Z,7.71
2022-12-02T08:09:35.266Z,7.50
2022-12-02T08:12:01.761Z,7.59
2022-12-02T08:14:28.131Z,7.39
2022-12-02T08:16:54.572Z,7.54
2022-12-02T08:19:21.048Z,7.70
2022-12-02T08:21:47.380Z,7.84
2022-12-02T08:24:13.823Z,8.01
2022-12-02T08:26:40.170Z,7.59
2022-12-02T08:29:06.653Z,7.57
2022-12-02T08:31:33.030Z,7.61
2022-12-02T08:34:05.348Z,7.76
2022-12-02T08:36:34.374Z,7.95
2022-12-02T08:39:06.611Z,7.97
2022-12-02T08:41:34.404Z,7.97
2022-12-02T08:44:01.165Z,7.77
2022-12-02T08:46:28.052Z,7.72
2022-12-02T08:48:54.850Z,7.76
2022-12-02T08:51:21.338Z,7.57
2022-12-02T08:53:48.213Z,7.56
2022-12-02T08:56:14.653Z,7.52
2022-12-02T08:58:41.133Z,7.31
2022-12-02T09:01:07.817Z,7.79
2022-12-02T09:03:34.313Z,7.35
2022-12-02T09:06:00.807Z,7.69
2022-12-02T09:08:27.221Z,7.85
2022-12-02T09:10:54.046Z,7.81
2022-12-02T09:13:20.567Z,7.80
2022-12-02T09:15:47.202Z,7.92
2022-12-02T09:18:14.673Z,8.19
2022-12-02T09:20:41.728Z,7.84
2022-12-02T09:23:08.633Z,8.24
2022-12-02T09:25:34.963Z,8.21
2022-12-02T09:28:02.427Z,7.98
2022-12-02T09:30:28.839Z,7.28
2022-12-02T09:32:55.199Z,7.56
2022-12-02T09:35:21.573Z,7.50
2022-12-02T09:37:48.243Z,7.60
2022-12-02T09:40:15.101Z,8.33
2022-12-02T09:42:41.710Z,8.05
2022-12-02T09:45:11.025Z,8.20
2022-12-02T09:47:37.532Z,7.96
2022-12-02T09:50:05.531Z,8.31
2022-12-02T09:52:32.222Z,8.13
2022-12-02T09:55:01.479Z,7.98
2022-12-02T09:57:38.718Z,8.25
2022-12-02T10:00:16.021Z,8.32
2022-12-02T10:02:46.013Z,7.89
2022-12-02T10:05:28.884Z,8.17
2022-12-02T10:07:57.914Z,7.92
2022-12-02T10:10:27.207Z,7.41
2022-12-02T10:12:54.492Z,8.03
2022-12-02T10:15:27.371Z,7.78
2022-12-02T10:17:55.134Z,7.95
2022-12-02T10:20:25.330Z,8.01
2022-12-02T10:23:18.419Z,7.97
2022-12-02T10:25:47.635Z,8.06
2022-12-02T10:28:29.759Z,7.82
2022-12-02T10:31:04.936Z,8.22
2022-12-02T10:33:38.157Z,8.11
2022-12-02T10:36:05.558Z,8.36
2022-12-02T10:38:41.335Z,8.28
2022-12-02T10:41:20.036Z,8.09
2022-12-02T10:43:52.373Z,8.16
2022-12-02T10:46:21.072Z,7.38
2022-12-02T10:48:48.533Z,7.54
2022-12-02T10:51:20.028Z,8.21
2022-12-02T10:53:51.755Z,8.36
2022-12-02T10:56:20.050Z,8.39
2022-12-02T10:58:48.125Z,8.42
2022-12-02T11:01:14.570Z,8.05
2022-12-02T11:03:41.251Z,7.90
2022-12-02T11:06:15.273Z,8.02
2022-12-02T11:08:44.025Z,8.16
2022-12-02T11:11:15.170Z,8.25
2022-12-02T11:14:00.813Z,8.31
2022-12-02T11:16:27.283Z,8.27
2022-12-02T11:19:09.125Z,8.20
2022-12-02T11:21:41.425Z,8.01
2022-12-02T11:24:23.053Z,8.06
2022-12-02T11:27:04.882Z,8.10
2022-12-02T11:29:41.448Z,7.72
2022-12-02T11:32:26.350Z,8.19
2022-12-02T11:35:18.167Z,7.99
2022-12-02T11:37:46.837Z,8.10
2022-12-02T11:40:16.123Z,8.23
2022-12-02T11:42:44.407Z,7.89
2022-12-02T11:45:15.740Z,7.92
2022-12-02T11:47:54.301Z,8.22
2022-12-02T11:50:38.140Z,8.42
2022-12-02T11:53:24.749Z,8.19
2022-12-02T11:55:54.976Z,8.19
2022-12-02T11:58:33.743Z,8.27
2022-12-02T12:01:12.323Z,8.05
2022-12-02T12:03:44.559Z,8.28
2022-12-02T12:06:31.868Z,8.05
2022-12-02T12:08:58.231Z,7.82
2022-12-02T12:11:27.520Z,8.21
2022-12-02T12:14:12.211Z,8.06
2022-12-02T12:16:41.050Z,7.89
2022-12-02T12:19:13.356Z,8.11
2022-12-02T12:21:48.662Z,7.89
2022-12-02T12:24:24.220Z,8.20
2022-12-02T12:26:57.091Z,8.10
2022-12-02T12:29:26.026Z,8.14
2022-12-02T12:31:52.971Z,7.68
2022-12-02T12:34:19.421Z,7.75
2022-12-02T12:36:46.470Z,8.11
2022-12-02T12:39:14.060Z,8.21
2022-12-02T12:44:30.009Z,8.35
2022-12-02T12:47:03.313Z,7.82
2022-12-02T12:49:30.210Z,8.25
2022-12-02T12:51:56.678Z,8.14
2022-12-02T12:54:22.990Z,8.46
2022-12-02T12:56:49.342Z,8.33
2022-12-02T12:59:15.981Z,8.12
2022-12-02T13:01:43.825Z,7.98
2022-12-02T13:04:10.413Z,8.24
2022-12-02T13:06:42.474Z,8.11
2022-12-02T13:09:10.534Z,8.04
2022-12-02T13:11:36.954Z,7.84
2022-12-02T13:14:03.414Z,8.07
2022-12-02T13:16:30.065Z,8.04
2022-12-02T13:18:56.465Z,8.27
2022-12-02T13:21:22.887Z,8.01
2022-12-02T13:23:49.297Z,7.69
2022-12-02T13:26:15.758Z,7.28
2022-12-02T13:28:42.247Z,8.13
2022-12-02T13:31:08.824Z,7.77
2022-12-02T13:33:35.301Z,8.23
2022-12-02T13:36:01.644Z,7.69
2022-12-02T13:38:27.951Z,7.51
2022-12-02T13:40:54.351Z,7.56
2022-12-02T13:43:21.248Z,7.86
2022-12-02T13:45:47.845Z,8.15
2022-12-02T13:48:14.194Z,7.52
2022-12-02T13:50:40.645Z,7.81
2022-12-02T13:53:06.982Z,8.11
2022-12-02T13:55:33.355Z,7.96
2022-12-02T13:57:59.752Z,7.47
2022-12-02T14:00:26.176Z,7.35
2022-12-02T14:02:53.745Z,8.06
2022-12-02T14:05:20.127Z,8.33
2022-12-02T14:07:53.409Z,7.53
2022-12-02T14:10:20.026Z,8.19
2022-12-02T14:12:46.477Z,7.27
2022-12-02T14:15:12.808Z,7.81
2022-12-02T14:17:39.252Z,7.89
2022-12-02T14:20:06.278Z,7.74
2022-12-02T14:22:33.250Z,7.52
2022-12-02T14:24:59.683Z,7.36
2022-12-02T14:27:26.404Z,7.81
2022-12-02T14:29:52.720Z,8.27
2022-12-02T14:32:19.106Z,8.02
2022-12-02T14:34:45.456Z,8.01
2022-12-02T14:37:15.035Z,7.18
2022-12-02T14:39:41.854Z,8.01
2022-12-02T14:42:08.849Z,7.81
2022-12-02T14:44:35.269Z,8.10
2022-12-02T14:47:01.760Z,7.88
2022-12-02T14:49:39.499Z,8.04
2022-12-02T14:52:07.695Z,8.24
2022-12-02T14:54:34.426Z,7.42
2022-12-02T14:57:00.845Z,7.68
2022-12-02T14:59:27.159Z,7.88
2022-12-02T15:01:53.844Z,8.00
2022-12-02T15:04:20.374Z,7.73
2022-12-02T15:06:46.842Z,7.71
2022-12-02T15:09:13.381Z,7.96
2022-12-02T15:11:39.743Z,7.93
2022-12-02T15:14:06.100Z,7.79
2022-12-02T15:16:32.573Z,7.89
2022-12-02T15:18:58.946Z,6.95
2022-12-02T15:21:25.277Z,7.25
2022-12-02T15:23:51.672Z,7.51
2022-12-02T15:26:18.036Z,7.78
2022-12-02T15:28:44.412Z,7.83
2022-12-02T15:31:10.925Z,7.85
2022-12-02T15:33:38.571Z,7.75
2022-12-02T15:36:05.243Z,7.83
2022-12-02T15:38:33.187Z,7.93
2022-12-02T15:41:00.137Z,7.15
2022-12-02T15:43:26.497Z,7.11
2022-12-02T15:45:53.612Z,7.92
2022-12-02T15:48:20.210Z,7.73
2022-12-02T15:50:51.691Z,7.68
2022-12-02T15:53:20.973Z,7.99
2022-12-02T15:55:47.989Z,7.51
2022-12-02T15:58:14.357Z,7.62
2022-12-02T16:00:40.693Z,7.85
2022-12-02T16:03:07.112Z,7.71
2022-12-02T16:05:33.422Z,7.74
2022-12-02T16:07:59.979Z,7.61
2022-12-02T16:10:26.354Z,7.75
2022-12-02T16:12:52.790Z,7.71
2022-12-02T16:15:19.125Z,7.65
2022-12-02T16:17:45.594Z,7.36
2022-12-02T16:20:12.665Z,7.65
2022-12-02T16:22:39.034Z,7.58
2022-12-02T16:25:05.807Z,7.57
2022-12-02T16:27:32.125Z,7.59
2022-12-02T16:29:58.544Z,7.51
2022-12-02T16:32:25.200Z,7.80
2022-12-02T16:34:52.040Z,7.83
2022-12-02T16:37:21.131Z,7.75
2022-12-02T16:39:47.491Z,7.71
2022-12-02T16:42:13.881Z,7.52
2022-12-02T16:44:40.329Z,7.45
2022-12-02T16:47:06.678Z,7.58
2022-12-02T16:49:33.214Z,7.17
2022-12-02T16:51:59.524Z,7.60
2022-12-02T16:54:25.925Z,7.85
2022-12-02T16:56:55.908Z,7.83
2022-12-02T16:59:23.600Z,7.70
2022-12-02T17:01:50.083Z,7.44
2022-12-02T17:04:16.539Z,7.61
2022-12-02T17:06:42.966Z,7.63
2022-12-02T17:09:09.277Z,7.50
2022-12-02T17:11:35.599Z,7.00
2022-12-02T17:14:01.968Z,7.46
2022-12-02T17:16:29.476Z,7.53
2022-12-02T17:18:55.862Z,7.68
2022-12-02T17:21:22.253Z,7.76
2022-12-02T17:23:48.936Z,7.73
2022-12-02T17:26:15.281Z,7.33
2022-12-02T17:28:41.691Z,7.55
2022-12-02T17:31:08.028Z,7.60
2022-12-02T17:33:34.367Z,7.53
2022-12-02T17:36:00.673Z,7.47
2022-12-02T17:38:27.140Z,7.43
2022-12-02T17:41:11.750Z,7.36
2022-12-02T17:43:38.988Z,7.85
2022-12-02T17:46:06.412Z,7.93
2022-12-02T17:48:32.928Z,7.64
2022-12-02T17:50:59.245Z,7.83
2022-12-02T17:53:25.924Z,7.70
2022-12-02T17:55:52.239Z,7.74
2022-12-02T17:58:18.595Z,7.52
2022-12-02T18:00:45.172Z,7.29
2022-12-02T18:03:11.569Z,7.19
2022-12-02T18:05:37.992Z,7.53
2022-12-02T18:08:04.532Z,7.40
2022-12-02T18:10:30.953Z,7.57
2022-12-02T18:12:57.302Z,7.25
2022-12-02T18:15:23.608Z,7.65
2022-12-02T18:17:50.014Z,7.35
2022-12-02T18:20:16.434Z,7.13
2022-12-02T18:22:42.976Z,7.72
2022-12-02T18:25:09.646Z,7.36
2022-12-02T18:27:35.967Z,7.61
2022-12-02T18:30:02.686Z,7.39
2022-12-02T18:32:29.021Z,7.28
2022-12-02T18:34:55.597Z,7.64
2022-12-02T18:37:22.454Z,7.40
2022-12-02T18:39:49.003Z,7.51
2022-12-02T18:42:15.455Z,7.15
2022-12-02T18:44:41.812Z,7.01
2022-12-02T18:47:08.324Z,7.31
2022-12-02T18:49:38.003Z,7.32
2022-12-02T18:52:09.329Z,7.25
2022-12-02T18:54:35.789Z,7.48
2022-12-02T18:57:02.120Z,7.37
2022-12-02T18:59:28.531Z,7.26
2022-12-02T19:01:54.998Z,7.51
2022-12-02T19:04:21.585Z,7.41
2022-12-02T19:06:47.971Z,7.10
2022-12-02T19:09:15.502Z,7.23
2022-12-02T19:11:41.836Z,7.03
2022-12-02T19:14:08.203Z,7.11
2022-12-02T19:16:34.639Z,6.73
2022-12-02T19:19:01.080Z,7.32
2022-12-02T19:21:27.634Z,7.16
2022-12-02T19:23:53.964Z,7.30
2022-12-02T19:26:21.753Z,7.48
2022-12-02T19:28:48.109Z,7.37
2022-12-02T19:31:14.553Z,7.08
2022-12-02T19:33:40.972Z,7.17
2022-12-02T19:36:07.628Z,7.04
2022-12-02T19:38:34.036Z,7.08
2022-12-02T19:41:00.347Z,7.15
2022-12-02T19:43:26.670Z,7.15
2022-12-02T19:45:53.063Z,7.15
2022-12-02T19:48:20.883Z,7.10
2022-12-02T19:50:47.182Z,7.34
2022-12-02T19:53:13.512Z,7.08
2022-12-02T19:55:39.832Z,7.29
2022-12-02T19:58:06.305Z,7.00
2022-12-02T20:00:33.439Z,7.19
2022-12-02T20:02:59.847Z,7.15
2022-12-02T20:05:26.212Z,7.07
2022-12-02T20:07:52.991Z,6.97
2022-12-02T20:10:20.236Z,7.28
2022-12-02T20:12:47.309Z,6.97
2022-12-02T20:15:15.514Z,6.58
2022-12-02T20:17:42.274Z,7.27
2022-12-02T20:20:11.166Z,6.80
2022-12-02T20:22:37.500Z,6.85
2022-12-02T20:25:04.161Z,6.98
2022-12-02T20:27:30.880Z,7.15
2022-12-02T20:29:57.182Z,6.62
2022-12-02T20:32:23.559Z,6.93
2022-12-02T20:34:50.052Z,6.85
2022-12-02T20:37:16.585Z,6.66
2022-12-02T20:39:42.982Z,7.09
2022-12-02T20:42:09.805Z,6.89
2022-12-02T20:44:36.271Z,6.71
2022-12-02T20:47:02.949Z,6.90
2022-12-02T20:49:29.477Z,6.72
2022-12-02T20:51:55.776Z,6.74
2022-12-02T20:54:22.110Z,6.88
2022-12-02T20:56:48.449Z,6.88
2022-12-02T20:59:14.845Z,6.85
2022-12-02T21:01:41.504Z,6.92
2022-12-02T21:04:07.902Z,6.91
2022-12-02T21:06:34.262Z,6.93
2022-12-02T21:09:00.568Z,6.53
2022-12-02T21:11:26.906Z,6.30
2022-12-02T21:13:53.232Z,6.88
2022-12-02T21:16:20.436Z,6.56
2022-12-02T21:18:48.282Z,6.93
2022-12-02T21:21:14.720Z,6.73
2022-12-02T21:23:41.089Z,7.05
2022-12-02T21:26:10.337Z,6.64
2022-12-02T21:28:36.922Z,6.78
2022-12-02T21:31:03.396Z,6.89
2022-12-02T21:33:29.744Z,6.66
2022-12-02T21:35:56.070Z,6.57
2022-12-02T21:38:22.575Z,6.58
2022-12-02T21:40:48.945Z,6.06
2022-12-02T21:43:16.543Z,6.24
2022-12-02T21:45:43.252Z,6.60
2022-12-02T21:48:09.625Z,6.47
2022-12-02T21:50:36.020Z,6.37
2022-12-02T21:53:02.434Z,6.54
2022-12-02T21:55:28.886Z,6.74
2022-12-02T21:57:55.219Z,6.95
2022-12-02T22:00:22.299Z,6.86
2022-12-02T22:02:48.723Z,6.62
2022-12-02T22:05:18.694Z,6.77
2022-12-02T22:07:45.828Z,6.90
2022-12-02T22:10:18.593Z,6.67
2022-12-02T22:12:45.841Z,6.91
2022-12-02T22:15:14.460Z,7.02
2022-12-02T22:17:40.841Z,6.68
2022-12-02T22:20:08.803Z,6.96
2022-12-02T22:22:35.249Z,6.91
2022-12-02T22:25:01.665Z,6.90
2022-12-02T22:27:28.532Z,7.03
2022-12-02T22:29:54.976Z,6.75
2022-12-02T22:32:21.491Z,6.47
2022-12-02T22:34:47.845Z,6.60
2022-12-02T22:37:14.330Z,6.86
2022-12-02T22:39:40.667Z,6.66
2022-12-02T22:42:07.101Z,6.80
2022-12-02T22:44:33.418Z,6.55
2022-12-02T22:46:59.783Z,6.66
2022-12-02T22:49:26.150Z,6.68
2022-12-02T22:51:52.517Z,6.90
2022-12-02T22:54:19.096Z,6.81
2022-12-02T22:56:45.388Z,6.61
2022-12-02T22:59:11.695Z,6.83
2022-12-02T23:01:38.102Z,6.59
2022-12-02T23:04:04.627Z,6.83
2022-12-02T23:06:30.936Z,6.71
2022-12-02T23:08:57.476Z,6.91
2022-12-02T23:11:23.832Z,6.79
2022-12-02T23:13:50.146Z,6.59
2022-12-02T23:16:16.694Z,6.57
2022-12-02T23:18:43.081Z,6.71
2022-12-02T23:21:09.418Z,7.01
2022-12-02T23:23:35.851Z,6.92
2022-12-02T23:26:02.209Z,7.00
2022-12-02T23:28:28.592Z,6.75
2022-12-02T23:30:54.952Z,6.71
2022-12-02T23:33:23.248Z,6.70
2022-12-02T23:35:49.553Z,6.65
2022-12-02T23:38:15.925Z,6.56
2022-12-02T23:40:42.251Z,6.56
2022-12-02T23:43:08.632Z,6.78
2022-12-02T23:45:34.982Z,6.44
2022-12-02T23:48:01.349Z,6.55
2022-12-02T23:50:27.677Z,6.49
2022-12-02T23:52:53.989Z,6.68
2022-12-02T23:55:20.533Z,6.56
2022-12-02T23:57:46.951Z,6.60
